Time,TemperatureF,DewpointF,PressureIn,WindDirection,WindDirectionDegrees,WindSpeedMPH,WindSpeedGustMPH,Humidity,HourlyPrecipIn,Conditions,Clouds,dailyrainin,SoftwareType,DateUTC
2013-01-18 00:00:00,26.4,15.5,30.08,NE,48,6.8,6.8,63,0.00,OVC,,0.00,WeatherDisplay:10.37,2013-01-18 05:00:00,
2013-01-18 00:03:00,26.2,15.3,30.07,NNE,18,6.9,6.9,63,0.00,OVC,,0.00,WeatherDisplay:10.37,2013-01-18 05:03:00,
2013-01-18 00:04:00,26.3,15.4,30.07,NE,54,9.2,9.2,63,0.00,OVC,,0.00,WeatherDisplay:10.37,2013-01-18 05:04:00,
2013-01-18 00:09:00,26.3,15.4,30.08,ENE,61,2.8,2.8,63,0.00,OVC,,0.00,WeatherDisplay:10.37,2013-01-18 05:09:00,
2013-01-18 00:13:00,26.2,15.3,30.06,ENE,78,4.6,4.6,63,0.00,OVC,,0.00,WeatherDisplay:10.37,2013-01-18 05:13:00,
2013-01-18 00:18:00,26.2,15.3,30.04,ENE,72,5.8,5.8,63,0.00,OVC,,0.00,WeatherDisplay:10.37,2013-01-18 05:18:00,
2013-01-18 00:23:00,26.1,15.3,30.05,ENE,69,3.5,3.8,63,0.00,OVC,,0.00,WeatherDisplay:10.37,2013-01-18 05:23:00,
2013-01-18 00:28:00,26.1,14.5,30.04,East,83,4.6,4.6,61,0.00,OVC,,0.00,WeatherDisplay:10.37,2013-01-18 05:28:00,
2013-01-18 00:33:00,25.8,13.9,30.04,North,10,8.1,8.1,60,0.00,OVC,,0.00,WeatherDisplay:10.37,2013-01-18 05:33:00,
2013-01-18 00:39:00,25.7,14.1,30.05,NE,56,6.9,6.9,61,0.00,OVC,,0.00,WeatherDisplay:10.37,2013-01-18 05:39:00,
2013-01-18 00:44:00,25.9,14.7,30.06,NNE,32,2.3,2.3,62,0.00,OVC,,0.00,WeatherDisplay:10.37,2013-01-18 05:44:00,
2013-01-18 00:49:00,25.8,14.2,30.06,ENE,78,6.9,6.9,61,0.00,OVC,,0.00,WeatherDisplay:10.37,2013-01-18 05:49:00,
2013-01-18 00:54:00,25.6,13.7,30.04,ENE,66,5.8,5.8,60,0.00,OVC,,0.00,WeatherDisplay:10.37,2013-01-18 05:54:00,
2013-01-18 00:59:00,25.7,14.5,30.04,NNE,25,2.4,2.4,62,0.00,OVC,,0.00,WeatherDisplay:10.37,2013-01-18 05:59:00,
2013-01-18 01:04:00,25.6,14.0,30.03,East,82,6.9,6.9,61,0.00,OVC,,0.00,WeatherDisplay:10.37,2013-01-18 06:04:00,
2013-01-18 01:09:00,25.6,14.0,30.04,ENE,78,9.2,9.2,61,0.00,OVC,,0.00,WeatherDisplay:10.37,2013-01-18 06:09:00,
2013-01-18 01:14:00,25.4,14.2,30.06,NE,55,4.6,4.6,62,0.00,OVC,,0.00,WeatherDisplay:10.37,2013-01-18 06:14:00,
2013-01-18 01:19:00,25.4,14.2,30.08,NE,56,4.6,4.6,62,0.00,OVC,,0.00,WeatherDisplay:10.37,2013-01-18 06:19:00,
2013-01-18 01:24:00,25.6,14.4,30.08,ENE,62,2.3,2.3,62,0.00,OVC,,0.00,WeatherDisplay:10.37,2013-01-18 06:24:00,
2013-01-18 01:29:00,25.6,15.1,30.09,North,8,0.0,0.0,64,0.00,OVC,,0.00,WeatherDisplay:10.37,2013-01-18 06:29:00,
2013-01-18 01:34:00,25.5,15.0,30.08,North,7,0.0,0.0,64,0.00,OVC,,0.00,WeatherDisplay:10.37,2013-01-18 06:34:00,
2013-01-18 01:39:00,25.5,15.0,30.08,NE,55,4.6,4.6,64,0.00,OVC,,0.00,WeatherDisplay:10.37,2013-01-18 06:39:00,
2013-01-18 01:44:00,25.5,14.7,30.06,NE,38,5.8,5.8,63,0.00,OVC,,0.00,WeatherDisplay:10.37,2013-01-18 06:44:00,
2013-01-18 01:49:00,25.3,14.9,30.08,North,8,1.1,0.0,64,0.00,OVC,,0.00,WeatherDisplay:10.37,2013-01-18 06:49:00,
2013-01-18 01:54:00,25.2,14.4,30.10,NNE,25,4.6,0.0,63,0.00,OVC,,0.00,WeatherDisplay:10.37,2013-01-18 06:54:00,
2013-01-18 01:59:00,25.2,14.8,30.09,NE,40,3.5,3.5,64,0.00,OVC,,0.00,WeatherDisplay:10.37,2013-01-18 06:59:00,
2013-01-18 02:04:00,25.2,14.4,30.08,ENE,61,4.2,4.2,63,0.00,OVC,,0.00,WeatherDisplay:10.37,2013-01-18 07:04:00,
2013-01-18 02:09:00,25.1,14.7,30.09,NNW,337,2.7,2.7,64,0.00,OVC,,0.00,WeatherDisplay:10.37,2013-01-18 07:09:00,
2013-01-18 02:14:00,25.2,14.8,30.10,NW,315,0.0,0.0,64,0.00,OVC,,0.00,WeatherDisplay:10.37,2013-01-18 07:14:00,
2013-01-18 02:19:00,25.0,14.6,30.10,North,7,0.0,0.9,64,0.00,OVC,,0.00,WeatherDisplay:10.37,2013-01-18 07:19:00,
2013-01-18 02:24:00,25.1,15.0,30.09,NNE,27,3.5,3.5,65,0.00,OVC,,0.00,WeatherDisplay:10.37,2013-01-18 07:24:00,
2013-01-18 02:29:00,25.0,14.6,30.10,NNE,25,0.0,0.0,64,0.00,OVC,,0.00,WeatherDisplay:10.37,2013-01-18 07:29:00,
2013-01-18 02:34:00,24.9,14.8,30.11,NE,47,4.6,4.6,65,0.00,OVC,,0.00,WeatherDisplay:10.37,2013-01-18 07:34:00,
2013-01-18 02:39:00,24.8,14.7,30.11,North,8,4.8,4.8,65,0.00,OVC,,0.00,WeatherDisplay:10.37,2013-01-18 07:39:00,
2013-01-18 02:44:00,24.7,15.0,30.09,NNE,25,1.1,1.1,66,0.00,OVC,,0.00,WeatherDisplay:10.37,2013-01-18 07:44:00,
2013-01-18 02:49:00,24.5,14.8,30.09,NW,311,6.9,6.9,66,0.00,OVC,,0.00,WeatherDisplay:10.37,2013-01-18 07:49:00,
2013-01-18 02:54:00,24.4,14.7,30.11,ENE,66,3.5,3.5,66,0.00,OVC,,0.00,WeatherDisplay:10.37,2013-01-18 07:54:00,
2013-01-18 02:59:00,24.1,14.4,30.11,NNE,20,4.6,4.6,66,0.00,OVC,,0.00,WeatherDisplay:10.37,2013-01-18 07:59:00,
2013-01-18 03:04:00,24.1,14.1,30.10,NE,44,10.4,10.4,65,0.00,OVC,,0.00,WeatherDisplay:10.37,2013-01-18 08:04:00,
2013-01-18 03:09:00,23.9,14.2,30.10,NE,37,6.9,6.9,66,0.00,OVC,,0.00,WeatherDisplay:10.37,2013-01-18 08:09:00,
2013-01-18 03:14:00,23.8,13.8,30.10,NE,51,6.9,6.9,65,0.00,OVC,,0.00,WeatherDisplay:10.37,2013-01-18 08:14:00,
2013-01-18 03:19:00,23.8,14.1,30.11,NE,38,3.5,4.9,66,0.00,OVC,,0.00,WeatherDisplay:10.37,2013-01-18 08:19:00,
2013-01-18 03:24:00,23.7,13.7,30.11,NE,35,8.1,8.1,65,0.00,OVC,,0.00,WeatherDisplay:10.37,2013-01-18 08:24:00,
2013-01-18 03:29:00,23.7,13.7,30.11,NNE,18,4.6,4.6,65,0.00,OVC,,0.00,WeatherDisplay:10.37,2013-01-18 08:29:00,
2013-01-18 03:34:00,23.3,12.9,30.11,ENE,75,6.9,6.9,64,0.00,OVC,,0.00,WeatherDisplay:10.37,2013-01-18 08:34:00,
2013-01-18 03:39:00,23.5,13.5,30.11,North,360,3.5,3.5,65,0.00,OVC,,0.00,WeatherDisplay:10.37,2013-01-18 08:39:00,
2013-01-18 03:44:00,23.4,13.4,30.12,North,6,0.0,0.0,65,0.00,OVC,,0.00,WeatherDisplay:10.37,2013-01-18 08:44:00,
2013-01-18 03:49:00,23.3,12.9,30.12,East,95,5.4,5.4,64,0.00,OVC,,0.00,WeatherDisplay:10.37,2013-01-18 08:49:00,
2013-01-18 03:54:00,23.3,12.9,30.12,ENE,65,6.9,6.9,64,0.00,OVC,,0.00,WeatherDisplay:10.37,2013-01-18 08:54:00,
2013-01-18 03:59:00,23.1,12.0,30.11,ENE,68,8.2,8.2,62,0.00,OVC,,0.00,WeatherDisplay:10.37,2013-01-18 08:59:00,
2013-01-18 04:04:00,22.9,11.8,30.12,East,79,8.1,8.1,62,0.00,OVC,,0.00,WeatherDisplay:10.37,2013-01-18 09:04:00,
2013-01-18 04:09:00,22.8,12.1,30.12,ENE,65,3.5,3.5,63,0.00,OVC,,0.00,WeatherDisplay:10.37,2013-01-18 09:09:00,
2013-01-18 04:14:00,22.7,12.0,30.13,North,4,3.5,3.5,63,0.00,OVC,,0.00,WeatherDisplay:10.37,2013-01-18 09:14:00,
2013-01-18 04:19:00,22.4,11.7,30.13,NE,44,6.9,6.9,63,0.00,OVC,,0.00,WeatherDisplay:10.37,2013-01-18 09:19:00,
2013-01-18 04:24:00,22.3,12.0,30.13,ENE,65,6.9,6.9,64,0.00,OVC,,0.00,WeatherDisplay:10.37,2013-01-18 09:24:00,
2013-01-18 04:29:00,22.0,11.7,30.14,NNE,18,5.8,5.8,64,0.00,OVC,,0.00,WeatherDisplay:10.37,2013-01-18 09:29:00,
2013-01-18 04:34:00,21.9,11.6,30.14,ENE,69,9.2,9.2,64,0.00,OVC,,0.00,WeatherDisplay:10.37,2013-01-18 09:34:00,
2013-01-18 04:39:00,21.9,12.0,30.15,NE,47,5.8,5.8,65,0.00,OVC,,0.00,WeatherDisplay:10.37,2013-01-18 09:39:00,
2013-01-18 04:44:00,21.7,11.4,30.15,NE,37,8.1,8.1,64,0.00,OVC,,0.00,WeatherDisplay:10.37,2013-01-18 09:44:00,
2013-01-18 04:49:00,21.3,11.0,30.16,NE,45,9.7,9.7,64,0.00,OVC,,0.00,WeatherDisplay:10.37,2013-01-18 09:49:00,
2013-01-18 04:54:00,21.4,11.1,30.16,NE,42,5.8,5.8,64,0.00,OVC,,0.00,WeatherDisplay:10.37,2013-01-18 09:54:00,
2013-01-18 04:59:00,21.2,10.9,30.17,North,360,11.5,11.5,64,0.00,OVC,,0.00,WeatherDisplay:10.37,2013-01-18 09:59:00,
2013-01-18 05:04:00,21.1,10.9,30.17,NE,41,5.8,5.8,64,0.00,FEW,,0.00,WeatherDisplay:10.37,2013-01-18 10:04:00,
2013-01-18 05:09:00,21.2,10.9,30.17,NE,45,4.6,4.6,64,0.00,FEW,,0.00,WeatherDisplay:10.37,2013-01-18 10:09:00,
2013-01-18 05:14:00,20.9,10.7,30.17,ENE,64,5.8,5.8,64,0.00,FEW,,0.00,WeatherDisplay:10.37,2013-01-18 10:14:00,
2013-01-18 05:19:00,20.8,10.9,30.18,NE,45,12.7,12.7,65,0.00,FEW,,0.00,WeatherDisplay:10.37,2013-01-18 10:19:00,
2013-01-18 05:24:00,20.7,10.8,30.18,North,4,8.1,8.1,65,0.00,FEW,,0.00,WeatherDisplay:10.37,2013-01-18 10:24:00,
2013-01-18 05:29:00,20.8,11.3,30.19,NNE,14,4.6,4.6,66,0.00,FEW,,0.00,WeatherDisplay:10.37,2013-01-18 10:29:00,
2013-01-18 05:34:00,20.7,11.5,30.19,ENE,61,8.1,8.1,67,0.00,FEW,,0.00,WeatherDisplay:10.37,2013-01-18 10:34:00,
2013-01-18 05:39:00,20.6,11.1,30.19,NE,47,5.8,5.8,66,0.00,FEW,,0.00,WeatherDisplay:10.37,2013-01-18 10:39:00,
2013-01-18 05:44:00,20.4,10.9,30.19,North,10,10.4,10.4,66,0.00,FEW,,0.00,WeatherDisplay:10.37,2013-01-18 10:44:00,
2013-01-18 05:49:00,20.3,10.8,30.19,ENE,76,10.4,10.4,66,0.00,FEW,,0.00,WeatherDisplay:10.37,2013-01-18 10:49:00,
2013-01-18 05:54:00,20.3,11.1,30.19,NE,34,6.9,6.9,67,0.00,FEW,,0.00,WeatherDisplay:10.37,2013-01-18 10:54:00,
2013-01-18 05:59:00,19.9,10.7,30.20,ENE,65,7.6,7.6,67,0.00,FEW,,0.00,WeatherDisplay:10.37,2013-01-18 10:59:00,
2013-01-18 06:04:00,19.8,10.6,30.20,North,3,3.5,3.5,67,0.00,FEW,,0.00,WeatherDisplay:10.37,2013-01-18 11:04:00,
2013-01-18 06:10:00,19.9,11.1,30.21,NE,47,8.1,8.1,68,0.00,FEW,,0.00,WeatherDisplay:10.37,2013-01-18 11:10:00,
2013-01-18 06:15:00,19.7,10.9,30.22,NNE,20,4.6,4.6,68,0.00,FEW,,0.00,WeatherDisplay:10.37,2013-01-18 11:15:00,
2013-01-18 06:20:00,19.8,11.0,30.22,ENE,73,4.6,4.6,68,0.00,OVC,,0.00,WeatherDisplay:10.37,2013-01-18 11:20:00,
2013-01-18 06:25:00,19.6,10.8,30.23,NE,42,8.1,8.1,68,0.00,OVC,,0.00,WeatherDisplay:10.37,2013-01-18 11:25:00,
2013-01-18 06:30:00,19.4,9.9,30.23,ENE,73,13.8,13.8,66,0.00,OVC,,0.00,WeatherDisplay:10.37,2013-01-18 11:30:00,
2013-01-18 06:35:00,19.5,10.4,30.23,SE,124,5.8,5.8,67,0.00,OVC,,0.00,WeatherDisplay:10.37,2013-01-18 11:35:00,
2013-01-18 06:40:00,19.2,10.1,30.24,ENE,64,2.3,2.3,67,0.00,OVC,,0.00,WeatherDisplay:10.37,2013-01-18 11:40:00,
2013-01-18 06:45:00,18.9,9.4,30.25,ENE,68,12.7,12.7,66,0.00,OVC,,0.00,WeatherDisplay:10.37,2013-01-18 11:45:00,
2013-01-18 06:50:00,19.0,9.5,30.25,ENE,72,9.2,9.2,66,0.00,OVC,,0.00,WeatherDisplay:10.37,2013-01-18 11:50:00,
2013-01-18 06:55:00,19.0,9.9,30.26,ENE,75,6.9,6.9,67,0.00,OVC,,0.00,WeatherDisplay:10.37,2013-01-18 11:55:00,
2013-01-18 07:00:00,18.6,9.5,30.26,ENE,64,5.8,5.8,67,0.00,OVC,,0.00,WeatherDisplay:10.37,2013-01-18 12:00:00,
2013-01-18 07:06:00,18.8,10.0,30.26,NE,44,4.6,4.6,68,0.00,OVC,,0.00,WeatherDisplay:10.37,2013-01-18 12:06:00,
2013-01-18 07:11:00,18.6,9.8,30.26,ENE,71,8.1,8.1,68,0.00,OVC,,0.00,WeatherDisplay:10.37,2013-01-18 12:11:00,
2013-01-18 07:16:00,18.5,9.7,30.27,ENE,58,6.9,6.9,68,0.00,OVC,,0.00,WeatherDisplay:10.37,2013-01-18 12:16:00,
2013-01-18 07:21:00,18.4,9.6,30.27,NNE,30,4.6,4.6,68,0.00,SCT,,0.00,WeatherDisplay:10.37,2013-01-18 12:21:00,
2013-01-18 07:26:00,18.2,9.4,30.28,NE,55,4.6,4.6,68,0.00,SCT,,0.00,WeatherDisplay:10.37,2013-01-18 12:26:00,
2013-01-18 07:31:00,18.2,9.4,30.28,ENE,71,3.5,3.5,68,0.00,SCT,,0.00,WeatherDisplay:10.37,2013-01-18 12:31:00,
2013-01-18 07:36:00,18.2,9.8,30.28,ENE,64,4.6,4.6,69,0.00,SCT,,0.00,WeatherDisplay:10.37,2013-01-18 12:36:00,
2013-01-18 07:41:00,18.1,9.7,30.29,SE,127,3.4,3.4,69,0.00,SCT,,0.00,WeatherDisplay:10.37,2013-01-18 12:41:00,
2013-01-18 07:46:00,18.0,9.2,30.30,North,3,6.9,6.9,68,0.00,SCT,,0.00,WeatherDisplay:10.37,2013-01-18 12:46:00,
2013-01-18 07:51:00,18.1,9.3,30.30,NNW,329,0.0,0.0,68,0.00,SCT,,0.00,WeatherDisplay:10.37,2013-01-18 12:51:00,
2013-01-18 07:56:00,18.1,9.3,30.30,NNE,32,3.5,3.5,68,0.00,SCT,,0.00,WeatherDisplay:10.37,2013-01-18 12:56:00,
2013-01-18 08:01:00,18.3,9.5,30.30,NE,38,2.3,3.0,68,0.00,SCT,,0.00,WeatherDisplay:10.37,2013-01-18 13:01:00,
2013-01-18 08:06:00,18.3,9.5,30.31,NNW,344,8.0,8.0,68,0.00,SCT,,0.00,WeatherDisplay:10.37,2013-01-18 13:06:00,
2013-01-18 08:11:00,18.3,9.5,30.31,NE,34,9.2,9.2,68,0.00,SCT,,0.00,WeatherDisplay:10.37,2013-01-18 13:11:00,
2013-01-18 08:16:00,18.3,9.5,30.32,WSW,247,8.1,8.1,68,0.00,SCT,,0.00,WeatherDisplay:10.37,2013-01-18 13:16:00,
2013-01-18 08:21:00,18.2,9.4,30.32,NW,325,4.6,4.6,68,0.00,SCT,,0.00,WeatherDisplay:10.37,2013-01-18 13:21:00,
2013-01-18 08:26:00,18.3,9.2,30.33,North,359,9.2,9.2,67,0.00,SCT,,0.00,WeatherDisplay:10.37,2013-01-18 13:26:00,
2013-01-18 08:31:00,18.5,9.4,30.33,North,0,2.3,2.3,67,0.00,SCT,,0.00,WeatherDisplay:10.37,2013-01-18 13:31:00,
2013-01-18 08:37:00,18.6,8.8,30.34,NW,316,2.3,0.0,65,0.00,SCT,,0.00,WeatherDisplay:10.37,2013-01-18 13:37:00,
2013-01-18 08:42:00,18.6,8.8,30.34,NW,305,4.6,5.1,65,0.00,SCT,,0.00,WeatherDisplay:10.37,2013-01-18 13:42:00,
2013-01-18 08:47:00,18.9,9.1,30.34,NW,313,4.7,4.7,65,0.00,SCT,,0.00,WeatherDisplay:10.37,2013-01-18 13:47:00,
2013-01-18 08:52:00,18.7,7.1,30.33,North,356,9.2,9.2,60,0.00,SCT,,0.00,WeatherDisplay:10.37,2013-01-18 13:52:00,
2013-01-18 08:57:00,19.2,8.3,30.34,NW,315,5.8,5.8,62,0.00,SCT,,0.00,WeatherDisplay:10.37,2013-01-18 13:57:00,
2013-01-18 09:02:00,19.1,7.1,30.34,North,7,3.5,3.5,59,0.00,SCT,,0.00,WeatherDisplay:10.37,2013-01-18 14:02:00,
2013-01-18 09:07:00,19.3,7.7,30.34,ENE,62,4.6,4.6,60,0.00,SCT,,0.00,WeatherDisplay:10.37,2013-01-18 14:07:00,
2013-01-18 09:12:00,19.3,8.1,30.34,ENE,72,4.6,4.6,61,0.00,SCT,,0.00,WeatherDisplay:10.37,2013-01-18 14:12:00,
2013-01-18 09:17:00,19.6,8.0,30.34,North,10,5.8,5.8,60,0.00,CLR,,0.00,WeatherDisplay:10.37,2013-01-18 14:17:00,
2013-01-18 09:22:00,19.7,8.1,30.34,NW,316,0.0,0.0,60,0.00,CLR,,0.00,WeatherDisplay:10.37,2013-01-18 14:22:00,
2013-01-18 09:27:00,19.9,7.9,30.35,NW,312,9.2,9.2,59,0.00,CLR,,0.00,WeatherDisplay:10.37,2013-01-18 14:27:00,
2013-01-18 09:32:00,19.7,6.9,30.36,North,354,6.9,6.9,57,0.00,CLR,,0.00,WeatherDisplay:10.37,2013-01-18 14:32:00,
2013-01-18 09:37:00,19.7,6.6,30.36,NW,325,7.0,7.0,56,0.00,CLR,,0.00,WeatherDisplay:10.37,2013-01-18 14:37:00,
2013-01-18 09:42:00,19.7,6.2,30.37,WNW,282,8.1,8.1,55,0.00,CLR,,0.00,WeatherDisplay:10.37,2013-01-18 14:42:00,
2013-01-18 09:48:00,19.8,6.3,30.37,NW,323,9.2,9.2,55,0.00,CLR,,0.00,WeatherDisplay:10.37,2013-01-18 14:48:00,
2013-01-18 09:53:00,19.8,5.9,30.37,WNW,296,8.1,8.1,54,0.00,CLR,,0.00,WeatherDisplay:10.37,2013-01-18 14:53:00,
2013-01-18 09:58:00,20.0,5.6,30.37,NW,313,5.8,5.8,53,0.00,CLR,,0.00,WeatherDisplay:10.37,2013-01-18 14:58:00,
2013-01-18 10:04:00,20.2,5.4,30.37,NW,305,5.8,5.8,52,0.00,CLR,,0.00,WeatherDisplay:10.37,2013-01-18 15:04:00,
2013-01-18 10:09:00,20.4,6.0,30.38,NNE,25,5.8,5.8,53,0.00,CLR,,0.00,WeatherDisplay:10.37,2013-01-18 15:09:00,
2013-01-18 10:14:00,20.4,5.6,30.38,NW,315,7.5,7.5,52,0.00,CLR,,0.00,WeatherDisplay:10.37,2013-01-18 15:14:00,
2013-01-18 10:19:00,20.7,3.7,30.38,SE,127,8.1,8.1,47,0.00,CLR,,0.00,WeatherDisplay:10.37,2013-01-18 15:19:00,
2013-01-18 10:24:00,20.7,3.2,30.38,NNE,23,11.5,11.5,46,0.00,CLR,,0.00,WeatherDisplay:10.37,2013-01-18 15:24:00,
2013-01-18 10:29:00,20.7,4.1,30.38,NNE,20,5.8,5.8,48,0.00,CLR,,0.00,WeatherDisplay:10.37,2013-01-18 15:29:00,
2013-01-18 10:35:00,21.1,4.5,30.38,ENE,72,4.6,4.6,48,0.00,CLR,,0.00,WeatherDisplay:10.37,2013-01-18 15:35:00,
2013-01-18 10:40:00,21.2,4.1,30.38,North,0,5.0,5.0,47,0.00,CLR,,0.00,WeatherDisplay:10.37,2013-01-18 15:40:00,
2013-01-18 10:45:00,21.2,4.6,30.38,NW,322,6.9,6.9,48,0.00,CLR,,0.00,WeatherDisplay:10.37,2013-01-18 15:45:00,
2013-01-18 10:50:00,21.2,4.6,30.38,North,350,4.6,4.6,48,0.00,CLR,,0.00,WeatherDisplay:10.37,2013-01-18 15:50:00,
2013-01-18 10:55:00,21.4,4.8,30.38,ENE,71,8.1,8.1,48,0.00,CLR,,0.00,WeatherDisplay:10.37,2013-01-18 15:55:00,
2013-01-18 11:00:00,21.7,4.6,30.38,NW,309,8.1,8.1,47,0.00,CLR,,0.00,WeatherDisplay:10.37,2013-01-18 16:00:00,
2013-01-18 11:05:00,21.6,4.9,30.38,NNW,346,12.7,12.7,48,0.00,CLR,,0.00,WeatherDisplay:10.37,2013-01-18 16:05:00,
2013-01-18 11:10:00,21.3,4.2,30.38,North,8,15.0,15.0,47,0.00,CLR,,0.00,WeatherDisplay:10.37,2013-01-18 16:10:00,
2013-01-18 11:15:00,21.5,3.9,30.38,NNW,343,11.5,11.5,46,0.00,CLR,,0.00,WeatherDisplay:10.37,2013-01-18 16:15:00,
2013-01-18 11:20:00,21.4,3.8,30.38,NNE,24,10.4,10.4,46,0.00,CLR,,0.00,WeatherDisplay:10.37,2013-01-18 16:20:00,
2013-01-18 11:25:00,21.6,4.5,30.37,WNW,296,7.4,7.4,47,0.00,CLR,,0.00,WeatherDisplay:10.37,2013-01-18 16:25:00,
2013-01-18 11:30:00,21.7,4.6,30.38,NW,319,9.9,9.9,47,0.00,CLR,,0.00,WeatherDisplay:10.37,2013-01-18 16:30:00,
2013-01-18 11:36:00,21.6,3.5,30.37,NNW,346,17.3,17.3,45,0.00,CLR,,0.00,WeatherDisplay:10.37,2013-01-18 16:36:00,
2013-01-18 11:41:00,21.8,4.7,30.37,WNW,285,6.1,6.1,47,0.00,CLR,,0.00,WeatherDisplay:10.37,2013-01-18 16:41:00,
2013-01-18 11:46:00,21.9,5.2,30.36,NW,323,9.2,9.2,48,0.00,CLR,,0.00,WeatherDisplay:10.37,2013-01-18 16:46:00,
2013-01-18 11:51:00,22.1,4.9,30.36,NNW,333,6.5,6.5,47,0.00,CLR,,0.00,WeatherDisplay:10.37,2013-01-18 16:51:00,
2013-01-18 11:56:00,22.4,4.3,30.36,WNW,282,9.2,9.2,45,0.00,CLR,,0.00,WeatherDisplay:10.37,2013-01-18 16:56:00,
2013-01-18 12:01:00,22.3,6.0,30.36,NNE,28,6.9,6.9,49,0.00,CLR,,0.00,WeatherDisplay:10.37,2013-01-18 17:01:00,
2013-01-18 12:06:00,22.5,5.3,30.36,NNE,20,9.2,9.2,47,0.00,CLR,,0.00,WeatherDisplay:10.37,2013-01-18 17:06:00,
2013-01-18 12:11:00,22.6,5.4,30.36,NNW,328,8.8,8.8,47,0.00,CLR,,0.00,WeatherDisplay:10.37,2013-01-18 17:11:00,
2013-01-18 12:16:00,22.6,5.9,30.35,NE,47,8.1,8.1,48,0.00,CLR,,0.00,WeatherDisplay:10.37,2013-01-18 17:16:00,
2013-01-18 12:21:00,22.8,6.1,30.36,NE,51,4.9,4.9,48,0.00,CLR,,0.00,WeatherDisplay:10.37,2013-01-18 17:21:00,
2013-01-18 12:26:00,23.1,6.3,30.36,North,7,5.8,5.8,48,0.00,CLR,,0.00,WeatherDisplay:10.37,2013-01-18 17:26:00,
2013-01-18 12:31:00,23.0,5.8,30.36,NW,326,9.3,9.3,47,0.00,CLR,,0.00,WeatherDisplay:10.37,2013-01-18 17:31:00,
2013-01-18 12:36:00,23.2,5.0,30.36,NNW,339,8.1,8.1,45,0.00,CLR,,0.00,WeatherDisplay:10.37,2013-01-18 17:36:00,
2013-01-18 12:41:00,23.5,6.2,30.36,NW,320,8.1,8.1,47,0.00,CLR,,0.00,WeatherDisplay:10.37,2013-01-18 17:41:00,
2013-01-18 12:46:00,23.6,5.4,30.37,WNW,295,8.1,8.1,45,0.00,CLR,,0.00,WeatherDisplay:10.37,2013-01-18 17:46:00,
2013-01-18 12:51:00,23.6,4.9,30.37,NNW,340,10.4,10.4,44,0.00,CLR,,0.00,WeatherDisplay:10.37,2013-01-18 17:51:00,
2013-01-18 12:56:00,23.5,6.2,30.37,West,280,11.5,11.5,47,0.00,CLR,,0.00,WeatherDisplay:10.37,2013-01-18 17:56:00,
2013-01-18 13:01:00,23.8,5.6,30.37,North,4,6.9,6.9,45,0.00,CLR,,0.00,WeatherDisplay:10.37,2013-01-18 18:01:00,
2013-01-18 13:06:00,23.8,5.6,30.36,NNW,343,16.1,16.1,45,0.00,CLR,,0.00,WeatherDisplay:10.37,2013-01-18 18:06:00,
2013-01-18 13:11:00,24.2,6.4,30.36,NW,315,9.2,9.2,46,0.00,CLR,,0.00,WeatherDisplay:10.37,2013-01-18 18:11:00,
2013-01-18 13:16:00,24.3,6.0,30.36,NE,52,9.2,9.2,45,0.00,CLR,,0.00,WeatherDisplay:10.37,2013-01-18 18:16:00,
2013-01-18 13:21:00,24.4,6.6,30.36,NW,322,6.9,6.9,46,0.00,CLR,,0.00,WeatherDisplay:10.37,2013-01-18 18:21:00,
2013-01-18 13:26:00,24.5,7.2,30.36,NW,313,9.2,9.2,47,0.00,CLR,,0.00,WeatherDisplay:10.37,2013-01-18 18:26:00,
2013-01-18 13:31:00,24.7,6.4,30.37,WNW,296,8.1,8.1,45,0.00,CLR,,0.00,WeatherDisplay:10.37,2013-01-18 18:31:00,
2013-01-18 13:36:00,24.6,6.3,30.37,NNW,339,12.7,12.7,45,0.00,CLR,,0.00,WeatherDisplay:10.37,2013-01-18 18:36:00,
2013-01-18 13:41:00,24.6,6.3,30.37,WNW,296,11.5,11.5,45,0.00,CLR,,0.00,WeatherDisplay:10.37,2013-01-18 18:41:00,
2013-01-18 13:46:00,24.7,6.9,30.37,NNW,330,9.2,9.2,46,0.00,CLR,,0.00,WeatherDisplay:10.37,2013-01-18 18:46:00,
2013-01-18 13:51:00,24.9,7.0,30.38,NNW,339,6.9,6.9,46,0.00,CLR,,0.00,WeatherDisplay:10.37,2013-01-18 18:51:00,
2013-01-18 13:56:00,24.8,7.0,30.38,NW,309,10.4,10.4,46,0.00,CLR,,0.00,WeatherDisplay:10.37,2013-01-18 18:56:00,
2013-01-18 14:01:00,25.1,6.7,30.37,West,263,9.3,9.3,45,0.00,CLR,,0.00,WeatherDisplay:10.37,2013-01-18 19:01:00,
2013-01-18 14:06:00,25.0,6.7,30.38,NW,305,6.9,6.9,45,0.00,CLR,,0.00,WeatherDisplay:10.37,2013-01-18 19:06:00,
2013-01-18 14:11:00,25.0,7.1,30.38,WNW,296,9.2,9.2,46,0.00,CLR,,0.00,WeatherDisplay:10.37,2013-01-18 19:11:00,
2013-01-18 14:17:00,25.1,7.2,30.38,West,272,11.5,11.5,46,0.00,FEW,,0.00,WeatherDisplay:10.37,2013-01-18 19:17:00,
2013-01-18 14:23:00,25.2,7.3,30.38,WNW,294,8.1,8.1,46,0.00,FEW,,0.00,WeatherDisplay:10.37,2013-01-18 19:23:00,
2013-01-18 14:28:00,25.1,6.3,30.38,NNW,346,11.5,11.5,44,0.00,FEW,,0.00,WeatherDisplay:10.37,2013-01-18 19:28:00,
2013-01-18 14:33:00,25.2,6.8,30.38,North,4,9.2,9.2,45,0.00,FEW,,0.00,WeatherDisplay:10.37,2013-01-18 19:33:00,
2013-01-18 14:38:00,25.2,6.8,30.38,NW,308,9.2,9.2,45,0.00,FEW,,0.00,WeatherDisplay:10.37,2013-01-18 19:38:00,
2013-01-18 14:43:00,25.3,7.4,30.38,NW,318,9.2,9.2,46,0.00,FEW,,0.00,WeatherDisplay:10.37,2013-01-18 19:43:00,
2013-01-18 14:48:00,25.3,7.9,30.38,WNW,288,9.0,9.0,47,0.00,FEW,,0.00,WeatherDisplay:10.37,2013-01-18 19:48:00,
2013-01-18 14:53:00,25.3,7.9,30.38,NNW,330,9.2,9.2,47,0.00,FEW,,0.00,WeatherDisplay:10.37,2013-01-18 19:53:00,
2013-01-18 14:58:00,25.3,8.4,30.37,WNW,288,11.5,11.5,48,0.00,FEW,,0.00,WeatherDisplay:10.37,2013-01-18 19:58:00,
2013-01-18 15:03:00,25.2,8.3,30.37,West,265,4.6,4.6,48,0.00,FEW,,0.00,WeatherDisplay:10.37,2013-01-18 20:03:00,
2013-01-18 15:08:00,25.2,7.3,30.38,WSW,251,8.1,8.1,46,0.00,FEW,,0.00,WeatherDisplay:10.37,2013-01-18 20:08:00,
2013-01-18 15:14:00,25.2,7.8,30.38,West,271,5.8,5.8,47,0.00,FEW,,0.00,WeatherDisplay:10.37,2013-01-18 20:14:00,
2013-01-18 15:19:00,25.0,7.6,30.38,NW,306,10.4,10.4,47,0.00,CLR,,0.00,WeatherDisplay:10.37,2013-01-18 20:19:00,
2013-01-18 15:24:00,24.8,7.9,30.38,NNW,336,10.9,10.9,48,0.00,CLR,,0.00,WeatherDisplay:10.37,2013-01-18 20:24:00,
2013-01-18 15:29:00,24.9,8.0,30.38,West,274,6.9,6.9,48,0.00,CLR,,0.00,WeatherDisplay:10.37,2013-01-18 20:29:00,
2013-01-18 15:35:00,24.7,8.3,30.38,NW,309,11.5,11.5,49,0.00,CLR,,0.00,WeatherDisplay:10.37,2013-01-18 20:35:00,
2013-01-18 15:40:00,24.7,8.7,30.38,NW,315,6.9,6.9,50,0.00,CLR,,0.00,WeatherDisplay:10.37,2013-01-18 20:40:00,
2013-01-18 15:45:00,24.6,8.2,30.38,NW,318,4.6,4.6,49,0.00,CLR,,0.00,WeatherDisplay:10.37,2013-01-18 20:45:00,
2013-01-18 15:50:00,24.4,8.0,30.38,WNW,288,10.4,10.4,49,0.00,CLR,,0.00,WeatherDisplay:10.37,2013-01-18 20:50:00,
2013-01-18 15:55:00,24.2,7.8,30.38,WNW,285,6.9,6.9,49,0.00,CLR,,0.00,WeatherDisplay:10.37,2013-01-18 20:55:00,
2013-01-18 16:00:00,24.1,8.2,30.38,WNW,291,10.4,10.4,50,0.00,CLR,,0.00,WeatherDisplay:10.37,2013-01-18 21:00:00,
2013-01-18 16:05:00,24.0,8.1,30.38,NNW,340,6.9,6.9,50,0.00,CLR,,0.00,WeatherDisplay:10.37,2013-01-18 21:05:00,
2013-01-18 16:10:00,23.9,8.0,30.38,West,277,10.4,10.4,50,0.00,CLR,,0.00,WeatherDisplay:10.37,2013-01-18 21:10:00,
2013-01-18 16:15:00,24.1,8.2,30.39,SW,226,6.9,6.9,50,0.00,CLR,,0.00,WeatherDisplay:10.37,2013-01-18 21:15:00,
2013-01-18 16:20:00,23.9,8.8,30.39,West,264,9.2,9.2,52,0.00,CLR,,0.00,WeatherDisplay:10.37,2013-01-18 21:20:00,
2013-01-18 16:25:00,23.6,8.6,30.39,West,281,6.1,6.1,52,0.00,CLR,,0.00,WeatherDisplay:10.37,2013-01-18 21:25:00,
2013-01-18 16:30:00,23.5,8.5,30.39,NW,319,5.8,5.8,52,0.00,CLR,,0.00,WeatherDisplay:10.37,2013-01-18 21:30:00,
2013-01-18 16:35:00,23.5,8.5,30.39,WNW,299,6.9,6.9,52,0.00,CLR,,0.00,WeatherDisplay:10.37,2013-01-18 21:35:00,
2013-01-18 16:40:00,23.3,8.7,30.39,NW,311,6.9,6.9,53,0.00,CLR,,0.00,WeatherDisplay:10.37,2013-01-18 21:40:00,
2013-01-18 16:45:00,23.4,8.4,30.39,WNW,296,3.1,3.1,52,0.00,CLR,,0.00,WeatherDisplay:10.37,2013-01-18 21:45:00,
2013-01-18 16:50:00,23.1,8.9,30.39,NW,325,10.4,10.4,54,0.00,CLR,,0.00,WeatherDisplay:10.37,2013-01-18 21:50:00,
2013-01-18 16:55:00,23.0,8.8,30.39,NW,326,5.8,5.8,54,0.00,CLR,,0.00,WeatherDisplay:10.37,2013-01-18 21:55:00,
2013-01-18 17:00:00,22.8,9.1,30.39,West,280,8.1,8.1,55,0.00,CLR,,0.00,WeatherDisplay:10.37,2013-01-18 22:00:00,
2013-01-18 17:05:00,22.6,8.5,30.40,WNW,294,5.8,5.8,54,0.00,CLR,,0.00,WeatherDisplay:10.37,2013-01-18 22:05:00,
2013-01-18 17:10:00,22.5,9.2,30.40,WNW,284,4.6,4.6,56,0.00,CLR,,0.00,WeatherDisplay:10.37,2013-01-18 22:10:00,
2013-01-18 17:15:00,22.5,9.2,30.40,NW,313,4.1,4.1,56,0.00,CLR,,0.00,WeatherDisplay:10.37,2013-01-18 22:15:00,
2013-01-18 17:20:00,22.3,9.0,30.40,WNW,291,6.9,6.9,56,0.00,CLR,,0.00,WeatherDisplay:10.37,2013-01-18 22:20:00,
2013-01-18 17:25:00,22.1,8.8,30.41,West,275,4.6,4.6,56,0.00,CLR,,0.00,WeatherDisplay:10.37,2013-01-18 22:25:00,
2013-01-18 17:30:00,22.1,8.8,30.41,West,275,8.1,8.1,56,0.00,CLR,,0.00,WeatherDisplay:10.37,2013-01-18 22:30:00,
2013-01-18 17:36:00,22.0,9.1,30.41,WNW,282,6.9,6.9,57,0.00,CLR,,0.00,WeatherDisplay:10.37,2013-01-18 22:36:00,
2013-01-18 17:41:00,21.9,9.4,30.41,West,280,9.2,9.2,58,0.00,CLR,,0.00,WeatherDisplay:10.37,2013-01-18 22:41:00,
2013-01-18 17:46:00,21.6,9.1,30.42,West,278,5.8,5.8,58,0.00,CLR,,0.00,WeatherDisplay:10.37,2013-01-18 22:46:00,
2013-01-18 17:51:00,21.8,9.7,30.42,West,267,5.8,5.8,59,0.00,CLR,,0.00,WeatherDisplay:10.37,2013-01-18 22:51:00,
2013-01-18 17:56:00,21.5,9.4,30.42,WSW,256,5.8,5.8,59,0.00,CLR,,0.00,WeatherDisplay:10.37,2013-01-18 22:56:00,
2013-01-18 18:01:00,21.4,9.7,30.42,WNW,298,5.8,5.8,60,0.00,CLR,,0.00,WeatherDisplay:10.37,2013-01-18 23:01:00,
2013-01-18 18:06:00,21.3,9.6,30.42,WNW,288,5.5,5.5,60,0.00,CLR,,0.00,WeatherDisplay:10.37,2013-01-18 23:06:00,
2013-01-18 18:11:00,21.2,9.5,30.42,WNW,289,4.6,4.6,60,0.00,CLR,,0.00,WeatherDisplay:10.37,2013-01-18 23:11:00,
2013-01-18 18:16:00,21.2,9.1,30.42,WSW,253,3.9,3.9,59,0.00,CLR,,0.00,WeatherDisplay:10.37,2013-01-18 23:16:00,
2013-01-18 18:21:00,21.2,9.1,30.42,West,268,4.6,4.6,59,0.00,CLR,,0.00,WeatherDisplay:10.37,2013-01-18 23:21:00,
2013-01-18 18:26:00,21.3,10.0,30.42,West,275,0.0,0.0,61,0.00,CLR,,0.00,WeatherDisplay:10.37,2013-01-18 23:26:00,
2013-01-18 18:31:00,21.1,10.1,30.42,SW,216,0.0,0.0,62,0.00,CLR,,0.00,WeatherDisplay:10.37,2013-01-18 23:31:00,
2013-01-18 18:36:00,20.9,10.3,30.42,West,267,2.3,2.3,63,0.00,CLR,,0.00,WeatherDisplay:10.37,2013-01-18 23:36:00,
2013-01-18 18:41:00,20.5,9.9,30.43,West,267,0.0,0.0,63,0.00,CLR,,0.00,WeatherDisplay:10.37,2013-01-18 23:41:00,
2013-01-18 18:46:00,20.1,9.5,30.43,West,267,0.0,0.0,63,0.00,CLR,,0.00,WeatherDisplay:10.37,2013-01-18 23:46:00,
2013-01-18 18:51:00,20.0,9.5,30.42,SW,229,0.0,0.0,63,0.00,CLR,,0.00,WeatherDisplay:10.37,2013-01-18 23:51:00,
2013-01-18 18:56:00,20.0,9.5,30.42,West,271,1.1,0.0,63,0.00,CLR,,0.00,WeatherDisplay:10.37,2013-01-18 23:56:00,
2013-01-18 19:01:00,19.8,9.3,30.42,West,271,0.0,0.0,63,0.00,CLR,,0.00,WeatherDisplay:10.37,2013-01-19 00:01:00,
2013-01-18 19:06:00,19.9,9.4,30.43,West,271,0.0,0.0,63,0.00,CLR,,0.00,WeatherDisplay:10.37,2013-01-19 00:06:00,
2013-01-18 19:11:00,19.9,10.1,30.42,West,271,0.0,0.0,65,0.00,CLR,,0.00,WeatherDisplay:10.37,2013-01-19 00:11:00,
2013-01-18 19:16:00,19.7,9.5,30.42,West,271,0.0,0.0,64,0.00,CLR,,0.00,WeatherDisplay:10.37,2013-01-19 00:16:00,
2013-01-18 19:21:00,19.7,9.5,30.42,West,271,0.0,0.0,64,0.00,CLR,,0.00,WeatherDisplay:10.37,2013-01-19 00:21:00,
2013-01-18 19:26:00,19.6,9.4,30.42,West,271,0.0,0.0,64,0.00,CLR,,0.00,WeatherDisplay:10.37,2013-01-19 00:26:00,
2013-01-18 19:31:00,19.6,9.8,30.42,SW,232,0.0,0.0,65,0.00,CLR,,0.00,WeatherDisplay:10.37,2013-01-19 00:31:00,
2013-01-18 19:36:00,19.5,9.3,30.42,SW,232,0.0,0.0,64,0.00,CLR,,0.00,WeatherDisplay:10.37,2013-01-19 00:36:00,
2013-01-18 19:41:00,19.5,9.0,30.42,SW,232,0.0,0.0,63,0.00,CLR,,0.00,WeatherDisplay:10.37,2013-01-19 00:41:00,
2013-01-18 19:46:00,19.7,9.2,30.42,SW,232,0.0,0.0,63,0.00,CLR,,0.00,WeatherDisplay:10.37,2013-01-19 00:46:00,
2013-01-18 19:52:00,19.5,9.0,30.42,SW,232,0.0,0.0,63,0.00,CLR,,0.00,WeatherDisplay:10.37,2013-01-19 00:52:00,
2013-01-18 19:57:00,19.7,9.2,30.42,SW,232,0.0,0.0,63,0.00,CLR,,0.00,WeatherDisplay:10.37,2013-01-19 00:57:00,
2013-01-18 20:02:00,19.8,9.6,30.41,SSE,151,1.8,1.8,64,0.00,CLR,,0.00,WeatherDisplay:10.37,2013-01-19 01:02:00,
2013-01-18 20:07:00,19.6,10.1,30.41,SW,234,2.6,2.6,66,0.00,CLR,,0.00,WeatherDisplay:10.37,2013-01-19 01:07:00,
2013-01-18 20:12:00,19.2,9.7,30.41,SSW,205,3.5,3.5,66,0.00,CLR,,0.00,WeatherDisplay:10.37,2013-01-19 01:12:00,
2013-01-18 20:17:00,19.4,9.6,30.42,SSW,195,0.0,0.0,65,0.00,CLR,,0.00,WeatherDisplay:10.37,2013-01-19 01:17:00,
2013-01-18 20:22:00,19.5,9.3,30.42,SW,220,4.6,4.6,64,0.00,CLR,,0.00,WeatherDisplay:10.37,2013-01-19 01:22:00,
2013-01-18 20:27:00,19.8,10.0,30.41,SW,234,3.2,3.2,65,0.00,CLR,,0.00,WeatherDisplay:10.37,2013-01-19 01:27:00,
2013-01-18 20:32:00,19.7,9.9,30.41,SSW,206,0.0,0.0,65,0.00,CLR,,0.00,WeatherDisplay:10.37,2013-01-19 01:32:00,
2013-01-18 20:37:00,19.6,9.8,30.42,WSW,256,0.0,0.0,65,0.00,CLR,,0.00,WeatherDisplay:10.37,2013-01-19 01:37:00,
2013-01-18 20:42:00,19.7,9.9,30.41,SSE,160,3.7,3.7,65,0.00,CLR,,0.00,WeatherDisplay:10.37,2013-01-19 01:42:00,
2013-01-18 20:47:00,19.9,9.7,30.42,WSW,243,0.0,0.0,64,0.00,CLR,,0.00,WeatherDisplay:10.37,2013-01-19 01:47:00,
2013-01-18 20:52:00,19.8,9.6,30.42,South,189,3.5,0.0,64,0.00,CLR,,0.00,WeatherDisplay:10.37,2013-01-19 01:52:00,
2013-01-18 20:57:00,20.0,9.8,30.42,South,186,0.0,0.0,64,0.00,CLR,,0.00,WeatherDisplay:10.37,2013-01-19 01:57:00,
2013-01-18 21:02:00,19.9,9.7,30.42,South,186,0.0,0.0,64,0.00,CLR,,0.00,WeatherDisplay:10.37,2013-01-19 02:02:00,
2013-01-18 21:07:00,19.8,9.6,30.41,SSE,158,0.0,1.3,64,0.00,CLR,,0.00,WeatherDisplay:10.37,2013-01-19 02:07:00,
2013-01-18 21:12:00,19.7,9.9,30.41,SSE,158,0.0,0.0,65,0.00,CLR,,0.00,WeatherDisplay:10.37,2013-01-19 02:12:00,
2013-01-18 21:17:00,19.6,9.8,30.41,SSE,158,0.0,0.0,65,0.00,CLR,,0.00,WeatherDisplay:10.37,2013-01-19 02:17:00,
2013-01-18 21:22:00,19.6,9.8,30.40,SSE,158,0.0,0.0,65,0.00,CLR,,0.00,WeatherDisplay:10.37,2013-01-19 02:22:00,
2013-01-18 21:27:00,19.2,10.4,30.39,SW,220,5.8,5.8,68,0.00,CLR,,0.00,WeatherDisplay:10.37,2013-01-19 02:27:00,
2013-01-18 21:32:00,19.1,10.3,30.40,SSW,199,3.5,3.5,68,0.00,CLR,,0.00,WeatherDisplay:10.37,2013-01-19 02:32:00,
2013-01-18 21:38:00,18.9,10.1,30.40,SW,224,0.0,0.0,68,0.00,CLR,,0.00,WeatherDisplay:10.37,2013-01-19 02:38:00,
2013-01-18 21:43:00,19.5,10.7,30.39,SW,224,0.0,0.0,68,0.00,CLR,,0.00,WeatherDisplay:10.37,2013-01-19 02:43:00,
2013-01-18 21:48:00,19.5,10.4,30.39,WSW,247,4.6,4.6,67,0.00,CLR,,0.00,WeatherDisplay:10.37,2013-01-19 02:48:00,
2013-01-18 21:53:00,19.8,10.3,30.40,WSW,247,0.0,0.0,66,0.00,CLR,,0.00,WeatherDisplay:10.37,2013-01-19 02:53:00,
2013-01-18 21:58:00,19.7,10.2,30.40,South,174,2.3,0.0,66,0.00,CLR,,0.00,WeatherDisplay:10.37,2013-01-19 02:58:00,
2013-01-18 22:03:00,19.9,10.1,30.39,South,174,0.0,0.0,65,0.00,CLR,,0.00,WeatherDisplay:10.37,2013-01-19 03:03:00,
2013-01-18 22:08:00,19.9,10.4,30.39,SSW,192,5.8,5.8,66,0.00,CLR,,0.00,WeatherDisplay:10.37,2013-01-19 03:08:00,
2013-01-18 22:13:00,20.1,10.6,30.39,SW,233,3.5,3.5,66,0.00,CLR,,0.00,WeatherDisplay:10.37,2013-01-19 03:13:00,
2013-01-18 22:18:00,20.0,10.2,30.39,West,278,3.5,3.5,65,0.00,CLR,,0.00,WeatherDisplay:10.37,2013-01-19 03:18:00,
2013-01-18 22:23:00,20.4,10.2,30.39,South,188,0.0,0.0,64,0.00,CLR,,0.00,WeatherDisplay:10.37,2013-01-19 03:23:00,
2013-01-18 22:28:00,20.4,10.2,30.39,SW,227,2.3,2.3,64,0.00,CLR,,0.00,WeatherDisplay:10.37,2013-01-19 03:28:00,
2013-01-18 22:33:00,20.9,10.3,30.39,SSE,164,3.5,3.5,63,0.00,CLR,,0.00,WeatherDisplay:10.37,2013-01-19 03:33:00,
2013-01-18 22:38:00,21.1,10.5,30.38,SSE,164,0.0,0.0,63,0.00,CLR,,0.00,WeatherDisplay:10.37,2013-01-19 03:38:00,
2013-01-18 22:43:00,21.1,10.5,30.38,SSE,164,0.0,0.0,63,0.00,CLR,,0.00,WeatherDisplay:10.37,2013-01-19 03:43:00,
2013-01-18 22:48:00,21.4,10.4,30.38,South,188,4.6,0.0,62,0.00,CLR,,0.00,WeatherDisplay:10.37,2013-01-19 03:48:00,
2013-01-18 22:53:00,21.2,10.2,30.39,SSW,206,0.0,0.0,62,0.00,CLR,,0.00,WeatherDisplay:10.37,2013-01-19 03:53:00,
2013-01-18 22:58:00,21.3,10.3,30.38,South,175,0.0,0.0,62,0.00,CLR,,0.00,WeatherDisplay:10.37,2013-01-19 03:58:00,
2013-01-18 23:03:00,21.4,10.4,30.38,SSW,196,5.8,5.8,62,0.00,CLR,,0.00,WeatherDisplay:10.37,2013-01-19 04:03:00,
2013-01-18 23:08:00,21.4,10.4,30.38,South,191,2.4,2.4,62,0.00,CLR,,0.00,WeatherDisplay:10.37,2013-01-19 04:08:00,
2013-01-18 23:13:00,21.7,11.1,30.37,South,186,4.6,4.6,63,0.00,CLR,,0.00,WeatherDisplay:10.37,2013-01-19 04:13:00,
2013-01-18 23:18:00,21.7,11.1,30.37,SSE,161,5.8,5.8,63,0.00,CLR,,0.00,WeatherDisplay:10.37,2013-01-19 04:18:00,
2013-01-18 23:23:00,22.0,11.0,30.37,SE,144,3.5,3.5,62,0.00,CLR,,0.00,WeatherDisplay:10.37,2013-01-19 04:23:00,
2013-01-18 23:29:00,22.2,11.5,30.37,SSW,208,0.0,0.0,63,0.00,CLR,,0.00,WeatherDisplay:10.37,2013-01-19 04:29:00,
2013-01-18 23:34:00,22.7,12.4,30.36,South,175,4.6,4.6,64,0.00,CLR,,0.00,WeatherDisplay:10.37,2013-01-19 04:34:00,
2013-01-18 23:39:00,22.8,12.5,30.36,SSE,168,0.0,0.0,64,0.00,CLR,,0.00,WeatherDisplay:10.37,2013-01-19 04:39:00,
2013-01-18 23:44:00,22.8,12.5,30.36,SSW,195,6.3,6.3,64,0.00,CLR,,0.00,WeatherDisplay:10.37,2013-01-19 04:44:00,
2013-01-18 23:49:00,22.8,12.1,30.36,South,171,5.8,5.8,63,0.00,CLR,,0.00,WeatherDisplay:10.37,2013-01-19 04:49:00,
2013-01-18 23:54:00,22.7,12.0,30.35,South,185,5.8,5.8,63,0.00,CLR,,0.00,WeatherDisplay:10.37,2013-01-19 04:54:00,
2013-01-18 23:59:00,23.0,11.9,30.35,SW,236,10.9,10.9,62,0.00,CLR,,0.00,WeatherDisplay:10.37,2013-01-19 04:59:00,